sensor_id;sensor_type;location;lat;lon;timestamp;pressure;altitude;pressure_sealevel;temperature;humidity
51229;BME280;37304;52.216;6.874;2023-02-15T00:01:52;102671.78;;;1.48;100.00
51229;BME280;37304;52.216;6.874;2023-02-15T00:06:53;102666.59;;;1.46;100.00
51229;BME280;37304;52.216;6.874;2023-02-15T00:11:53;102667.47;;;1.30;100.00
51229;BME280;37304;52.216;6.874;2023-02-15T00:16:53;102656.44;;;1.14;100.00
51229;BME280;37304;52.216;6.874;2023-02-15T00:21:54;102659.06;;;1.16;100.00
51229;BME280;37304;52.216;6.874;2023-02-15T00:26:55;102660.63;;;1.12;100.00
51229;BME280;37304;52.216;6.874;2023-02-15T00:31:56;102652.75;;;1.26;100.00
51229;BME280;37304;52.216;6.874;2023-02-15T00:36:56;102656.03;;;1.23;100.00
51229;BME280;37304;52.216;6.874;2023-02-15T00:41:57;102652.47;;;1.03;100.00
51229;BME280;37304;52.216;6.874;2023-02-15T00:46:57;102650.03;;;0.90;100.00
51229;BME280;37304;52.216;6.874;2023-02-15T00:51:57;102643.31;;;0.75;100.00
51229;BME280;37304;52.216;6.874;2023-02-15T00:56:58;102641.22;;;0.68;100.00
51229;BME280;37304;52.216;6.874;2023-02-15T01:01:58;102637.44;;;0.61;100.00
51229;BME280;37304;52.216;6.874;2023-02-15T01:06:58;102635.19;;;0.51;100.00
51229;BME280;37304;52.216;6.874;2023-02-15T01:11:59;102634.81;;;0.43;100.00
51229;BME280;37304;52.216;6.874;2023-02-15T01:16:59;102625.22;;;0.39;100.00
51229;BME280;37304;52.216;6.874;2023-02-15T01:21:59;102626.38;;;0.29;100.00
51229;BME280;37304;52.216;6.874;2023-02-15T01:27:00;102619.56;;;0.29;100.00
51229;BME280;37304;52.216;6.874;2023-02-15T01:32:00;102608.59;;;0.16;100.00
51229;BME280;37304;52.216;6.874;2023-02-15T01:37:01;102598.03;;;0.09;100.00
51229;BME280;37304;52.216;6.874;2023-02-15T01:42:01;102596.19;;;0.07;100.00
51229;BME280;37304;52.216;6.874;2023-02-15T01:47:02;102595.72;;;0.14;100.00
51229;BME280;37304;52.216;6.874;2023-02-15T01:52:02;102589.47;;;0.09;100.00
51229;BME280;37304;52.216;6.874;2023-02-15T01:57:10;102589.75;;;0.13;100.00
51229;BME280;37304;52.216;6.874;2023-02-15T02:02:13;102581.81;;;0.09;100.00
51229;BME280;37304;52.216;6.874;2023-02-15T02:07:18;102586.28;;;0.13;100.00
51229;BME280;37304;52.216;6.874;2023-02-15T02:12:21;102581.44;;;0.18;100.00
51229;BME280;37304;52.216;6.874;2023-02-15T02:28:11;102578.41;;;-0.07;100.00
51229;BME280;37304;52.216;6.874;2023-02-15T02:33:33;102577.91;;;-0.16;100.00
51229;BME280;37304;52.216;6.874;2023-02-15T02:49:07;102573.50;;;-0.34;100.00
51229;BME280;37304;52.216;6.874;2023-02-15T02:54:08;102569.81;;;-0.39;100.00
51229;BME280;37304;52.216;6.874;2023-02-15T02:59:25;102561.72;;;-0.32;100.00
51229;BME280;37304;52.216;6.874;2023-02-15T03:04:35;102533.03;;;-0.42;100.00
51229;BME280;37304;52.216;6.874;2023-02-15T03:09:39;102528.69;;;-0.28;100.00
51229;BME280;37304;52.216;6.874;2023-02-15T03:14:48;102537.94;;;-0.31;100.00
51229;BME280;37304;52.216;6.874;2023-02-15T03:19:51;102534.06;;;-0.39;100.00
51229;BME280;37304;52.216;6.874;2023-02-15T03:25:05;102526.94;;;-0.45;100.00
51229;BME280;37304;52.216;6.874;2023-02-15T03:30:06;102523.63;;;-0.12;100.00
51229;BME280;37304;52.216;6.874;2023-02-15T03:35:07;102529.56;;;0.04;100.00
51229;BME280;37304;52.216;6.874;2023-02-15T03:40:18;102522.63;;;0.01;100.00
51229;BME280;37304;52.216;6.874;2023-02-15T03:45:40;102522.88;;;-0.09;100.00
51229;BME280;37304;52.216;6.874;2023-02-15T03:51:01;102514.50;;;-0.23;100.00
51229;BME280;37304;52.216;6.874;2023-02-15T03:56:22;102518.81;;;-0.22;100.00
51229;BME280;37304;52.216;6.874;2023-02-15T04:01:34;102523.63;;;-0.12;100.00
51229;BME280;37304;52.216;6.874;2023-02-15T04:06:53;102523.13;;;-0.21;100.00
51229;BME280;37304;52.216;6.874;2023-02-15T04:11:54;102519.78;;;-0.35;100.00
51229;BME280;37304;52.216;6.874;2023-02-15T04:16:54;102521.72;;;-0.31;100.00
51229;BME280;37304;52.216;6.874;2023-02-15T04:21:54;102521.13;;;-0.10;100.00
51229;BME280;37304;52.216;6.874;2023-02-15T04:27:13;102524.41;;;-0.13;100.00
51229;BME280;37304;52.216;6.874;2023-02-15T04:32:14;102527.38;;;-0.05;100.00
51229;BME280;37304;52.216;6.874;2023-02-15T04:37:14;102520.25;;;0.21;100.00
51229;BME280;37304;52.216;6.874;2023-02-15T04:42:14;102517.22;;;0.28;100.00
51229;BME280;37304;52.216;6.874;2023-02-15T04:47:15;102509.06;;;0.35;100.00
51229;BME280;37304;52.216;6.874;2023-02-15T04:52:15;102501.31;;;0.50;100.00
51229;BME280;37304;52.216;6.874;2023-02-15T04:57:17;102494.00;;;0.58;100.00
51229;BME280;37304;52.216;6.874;2023-02-15T05:02:17;102495.13;;;0.63;100.00
51229;BME280;37304;52.216;6.874;2023-02-15T05:07:18;102485.69;;;0.62;100.00
51229;BME280;37304;52.216;6.874;2023-02-15T05:12:20;102487.38;;;0.62;100.00
51229;BME280;37304;52.216;6.874;2023-02-15T05:17:20;102482.50;;;0.66;100.00
51229;BME280;37304;52.216;6.874;2023-02-15T05:22:21;102473.94;;;0.66;100.00
51229;BME280;37304;52.216;6.874;2023-02-15T05:27:21;102463.06;;;0.70;100.00
51229;BME280;37304;52.216;6.874;2023-02-15T05:32:40;102463.97;;;0.70;100.00
51229;BME280;37304;52.216;6.874;2023-02-15T05:37:43;102461.47;;;0.72;100.00
51229;BME280;37304;52.216;6.874;2023-02-15T05:42:43;102454.59;;;0.71;100.00
51229;BME280;37304;52.216;6.874;2023-02-15T05:47:44;102459.28;;;0.80;100.00
51229;BME280;37304;52.216;6.874;2023-02-15T05:52:45;102464.00;;;0.72;100.00
51229;BME280;37304;52.216;6.874;2023-02-15T05:57:45;102464.22;;;0.58;100.00
51229;BME280;37304;52.216;6.874;2023-02-15T06:02:46;102468.06;;;0.50;100.00
51229;BME280;37304;52.216;6.874;2023-02-15T06:07:46;102468.84;;;0.49;100.00
51229;BME280;37304;52.216;6.874;2023-02-15T06:12:46;102455.34;;;0.35;100.00
51229;BME280;37304;52.216;6.874;2023-02-15T06:17:47;102461.03;;;0.46;100.00
51229;BME280;37304;52.216;6.874;2023-02-15T06:22:47;102458.47;;;0.46;100.00
51229;BME280;37304;52.216;6.874;2023-02-15T06:27:47;102461.25;;;0.51;100.00
51229;BME280;37304;52.216;6.874;2023-02-15T06:32:49;102447.59;;;0.50;100.00
51229;BME280;37304;52.216;6.874;2023-02-15T06:37:49;102462.78;;;0.47;100.00
51229;BME280;37304;52.216;6.874;2023-02-15T06:42:50;102448.28;;;0.48;100.00
51229;BME280;37304;52.216;6.874;2023-02-15T06:47:50;102455.25;;;0.50;100.00
51229;BME280;37304;52.216;6.874;2023-02-15T06:52:58;102457.66;;;0.47;100.00
51229;BME280;37304;52.216;6.874;2023-02-15T06:57:58;102464.22;;;0.42;100.00
51229;BME280;37304;52.216;6.874;2023-02-15T07:02:58;102445.19;;;0.53;100.00
51229;BME280;37304;52.216;6.874;2023-02-15T07:08:00;102446.63;;;0.48;100.00
51229;BME280;37304;52.216;6.874;2023-02-15T07:13:00;102446.19;;;0.57;100.00
51229;BME280;37304;52.216;6.874;2023-02-15T07:18:01;102451.56;;;0.62;100.00
51229;BME280;37304;52.216;6.874;2023-02-15T07:23:01;102451.81;;;0.66;100.00
51229;BME280;37304;52.216;6.874;2023-02-15T07:28:03;102446.34;;;0.77;100.00
51229;BME280;37304;52.216;6.874;2023-02-15T07:33:03;102442.47;;;0.85;100.00
51229;BME280;37304;52.216;6.874;2023-02-15T07:38:22;102431.38;;;1.02;100.00
51229;BME280;37304;52.216;6.874;2023-02-15T07:43:22;102419.16;;;1.15;100.00
51229;BME280;37304;52.216;6.874;2023-02-15T07:48:23;102415.13;;;1.38;100.00
51229;BME280;37304;52.216;6.874;2023-02-15T07:53:23;102415.63;;;1.67;100.00
51229;BME280;37304;52.216;6.874;2023-02-15T07:58:23;102401.47;;;1.76;100.00
51229;BME280;37304;52.216;6.874;2023-02-15T08:03:43;102390.25;;;1.93;100.00
51229;BME280;37304;52.216;6.874;2023-02-15T08:08:44;102374.53;;;2.05;100.00
51229;BME280;37304;52.216;6.874;2023-02-15T08:13:46;102373.56;;;2.23;100.00
51229;BME280;37304;52.216;6.874;2023-02-15T08:18:54;102371.84;;;2.43;100.00
51229;BME280;37304;52.216;6.874;2023-02-15T08:23:55;102363.16;;;2.60;100.00
51229;BME280;37304;52.216;6.874;2023-02-15T08:28:56;102358.31;;;2.89;100.00
51229;BME280;37304;52.216;6.874;2023-02-15T08:33:57;102350.88;;;3.18;100.00
51229;BME280;37304;52.216;6.874;2023-02-15T08:38:58;102354.72;;;5.37;100.00
51229;BME280;37304;52.216;6.874;2023-02-15T08:44:01;102344.53;;;7.51;100.00
51229;BME280;37304;52.216;6.874;2023-02-15T08:49:02;102336.75;;;9.00;100.00
51229;BME280;37304;52.216;6.874;2023-02-15T08:54:05;102329.84;;;9.72;100.00
51229;BME280;37304;52.216;6.874;2023-02-15T08:59:10;102326.66;;;11.15;100.00
51229;BME280;37304;52.216;6.874;2023-02-15T09:04:11;102319.81;;;11.38;100.00
51229;BME280;37304;52.216;6.874;2023-02-15T09:09:13;102304.38;;;12.12;100.00
51229;BME280;37304;52.216;6.874;2023-02-15T09:14:16;102299.97;;;12.73;100.00
51229;BME280;37304;52.216;6.874;2023-02-15T09:19:18;102311.13;;;13.23;100.00
51229;BME280;37304;52.216;6.874;2023-02-15T09:24:25;102303.94;;;13.74;100.00
51229;BME280;37304;52.216;6.874;2023-02-15T09:29:25;102286.38;;;13.90;100.00
51229;BME280;37304;52.216;6.874;2023-02-15T09:34:28;102287.94;;;14.14;100.00
51229;BME280;37304;52.216;6.874;2023-02-15T09:39:29;102287.34;;;14.79;100.00
51229;BME280;37304;52.216;6.874;2023-02-15T09:50:39;102289.47;;;15.21;96.10
51229;BME280;37304;52.216;6.874;2023-02-15T09:56:05;102285.97;;;15.22;91.52
51229;BME280;37304;52.216;6.874;2023-02-15T10:01:23;102295.53;;;15.89;92.46
51229;BME280;37304;52.216;6.874;2023-02-15T10:06:35;102298.25;;;15.19;90.39
51229;BME280;37304;52.216;6.874;2023-02-15T10:17:40;102273.91;;;15.75;84.90
51229;BME280;37304;52.216;6.874;2023-02-15T10:28:52;102273.69;;;15.87;84.34
51229;BME280;37304;52.216;6.874;2023-02-15T10:39:10;102266.53;;;14.68;85.65
51229;BME280;37304;52.216;6.874;2023-02-15T10:44:35;102270.25;;;14.44;86.32
51229;BME280;37304;52.216;6.874;2023-02-15T11:06:25;102253.84;;;15.08;83.05
51229;BME280;37304;52.216;6.874;2023-02-15T11:11:33;102253.34;;;14.79;83.84
51229;BME280;37304;52.216;6.874;2023-02-15T11:16:43;102249.81;;;14.80;84.43
51229;BME280;37304;52.216;6.874;2023-02-15T11:21:49;102245.84;;;15.22;83.14
51229;BME280;37304;52.216;6.874;2023-02-15T11:26:56;102250.59;;;14.92;83.60
51229;BME280;37304;52.216;6.874;2023-02-15T11:32:02;102237.22;;;15.13;81.55
51229;BME280;37304;52.216;6.874;2023-02-15T11:37:24;102233.16;;;14.03;85.45
51229;BME280;37304;52.216;6.874;2023-02-15T11:42:27;102228.59;;;12.90;91.99
51229;BME280;37304;52.216;6.874;2023-02-15T11:47:30;102221.84;;;12.25;98.44
51229;BME280;37304;52.216;6.874;2023-02-15T11:52:31;102214.03;;;11.61;100.00
51229;BME280;37304;52.216;6.874;2023-02-15T11:57:36;102205.31;;;11.56;100.00
51229;BME280;37304;52.216;6.874;2023-02-15T12:02:45;102200.94;;;11.24;100.00
51229;BME280;37304;52.216;6.874;2023-02-15T12:07:52;102196.56;;;11.07;100.00
51229;BME280;37304;52.216;6.874;2023-02-15T12:13:20;102189.63;;;11.10;100.00
51229;BME280;37304;52.216;6.874;2023-02-15T12:23:34;102191.31;;;11.06;100.00
51229;BME280;37304;52.216;6.874;2023-02-15T12:28:44;102180.94;;;11.18;100.00
51229;BME280;37304;52.216;6.874;2023-02-15T12:33:52;102182.66;;;11.04;100.00
51229;BME280;37304;52.216;6.874;2023-02-15T12:39:25;102175.69;;;11.00;100.00
51229;BME280;37304;52.216;6.874;2023-02-15T12:44:35;102161.81;;;10.88;100.00
51229;BME280;37304;52.216;6.874;2023-02-15T12:49:37;102161.75;;;10.81;100.00
51229;BME280;37304;52.216;6.874;2023-02-15T12:54:39;102152.28;;;11.00;100.00
51229;BME280;37304;52.216;6.874;2023-02-15T12:59:59;102154.03;;;10.99;100.00
51229;BME280;37304;52.216;6.874;2023-02-15T13:10:26;102144.50;;;11.07;100.00
51229;BME280;37304;52.216;6.874;2023-02-15T13:15:34;102140.22;;;11.59;100.00
51229;BME280;37304;52.216;6.874;2023-02-15T13:20:36;102122.94;;;13.56;100.00
51229;BME280;37304;52.216;6.874;2023-02-15T13:25:44;102126.72;;;14.18;95.76
51229;BME280;37304;52.216;6.874;2023-02-15T13:30:50;102115.03;;;15.11;93.70
51229;BME280;37304;52.216;6.874;2023-02-15T13:41:47;102086.94;;;16.21;79.93
51229;BME280;37304;52.216;6.874;2023-02-15T14:02:49;102084.13;;;13.09;96.97
51229;BME280;37304;52.216;6.874;2023-02-15T14:08:04;102075.69;;;12.64;99.62
51229;BME280;37304;52.216;6.874;2023-02-15T14:18:54;102066.41;;;12.05;100.00
51229;BME280;37304;52.216;6.874;2023-02-15T14:24:16;102066.38;;;11.94;100.00
51229;BME280;37304;52.216;6.874;2023-02-15T14:29:56;102057.72;;;11.86;100.00
51229;BME280;37304;52.216;6.874;2023-02-15T14:34:59;102058.63;;;11.68;100.00
51229;BME280;37304;52.216;6.874;2023-02-15T14:40:06;102058.66;;;11.70;100.00
51229;BME280;37304;52.216;6.874;2023-02-15T14:50:45;102044.75;;;11.60;100.00
51229;BME280;37304;52.216;6.874;2023-02-15T14:55:46;102046.50;;;11.51;100.00
51229;BME280;37304;52.216;6.874;2023-02-15T15:00:47;102041.31;;;11.41;100.00
51229;BME280;37304;52.216;6.874;2023-02-15T15:05:50;102035.22;;;11.42;100.00
51229;BME280;37304;52.216;6.874;2023-02-15T15:10:52;102037.84;;;11.39;100.00
51229;BME280;37304;52.216;6.874;2023-02-15T15:15:52;102039.56;;;11.26;100.00
51229;BME280;37304;52.216;6.874;2023-02-15T15:20:53;102051.72;;;11.14;100.00
51229;BME280;37304;52.216;6.874;2023-02-15T15:26:22;102043.94;;;11.06;100.00
51229;BME280;37304;52.216;6.874;2023-02-15T15:37:17;102052.56;;;10.82;100.00
51229;BME280;37304;52.216;6.874;2023-02-15T15:52:57;102048.13;;;10.42;100.00
51229;BME280;37304;52.216;6.874;2023-02-15T15:58:04;102052.38;;;10.29;100.00
51229;BME280;37304;52.216;6.874;2023-02-15T16:03:05;102045.38;;;10.16;100.00
51229;BME280;37304;52.216;6.874;2023-02-15T16:08:13;102052.19;;;9.90;100.00
51229;BME280;37304;52.216;6.874;2023-02-15T16:13:14;102036.50;;;9.76;100.00
51229;BME280;37304;52.216;6.874;2023-02-15T16:18:19;102044.25;;;9.63;100.00
51229;BME280;37304;52.216;6.874;2023-02-15T16:24:10;102041.56;;;9.53;100.00
51229;BME280;37304;52.216;6.874;2023-02-15T16:28:49;102035.41;;;9.39;100.00
51229;BME280;37304;52.216;6.874;2023-02-15T16:33:53;102038.75;;;9.22;100.00
51229;BME280;37304;52.216;6.874;2023-02-15T16:44:00;102051.41;;;8.91;100.00
51229;BME280;37304;52.216;6.874;2023-02-15T16:49:07;102043.53;;;8.80;100.00
51229;BME280;37304;52.216;6.874;2023-02-15T16:54:18;102035.63;;;8.65;100.00
51229;BME280;37304;52.216;6.874;2023-02-15T16:59:41;102036.38;;;8.57;100.00
51229;BME280;37304;52.216;6.874;2023-02-15T17:04:44;102035.31;;;8.43;100.00
51229;BME280;37304;52.216;6.874;2023-02-15T17:09:53;102038.69;;;8.36;100.00
51229;BME280;37304;52.216;6.874;2023-02-15T17:14:54;102043.69;;;8.22;100.00
51229;BME280;37304;52.216;6.874;2023-02-15T17:19:55;102047.88;;;8.10;100.00
51229;BME280;37304;52.216;6.874;2023-02-15T17:25:01;102047.72;;;7.96;100.00
51229;BME280;37304;52.216;6.874;2023-02-15T17:30:21;102062.25;;;7.86;100.00
51229;BME280;37304;52.216;6.874;2023-02-15T17:35:28;102059.66;;;7.86;100.00
51229;BME280;37304;52.216;6.874;2023-02-15T17:40:31;102045.72;;;7.78;100.00
51229;BME280;37304;52.216;6.874;2023-02-15T17:45:42;102055.09;;;7.71;100.00
51229;BME280;37304;52.216;6.874;2023-02-15T17:50:43;102059.47;;;7.76;100.00
51229;BME280;37304;52.216;6.874;2023-02-15T17:55:44;102046.47;;;7.69;100.00
51229;BME280;37304;52.216;6.874;2023-02-15T18:00:50;102056.72;;;7.63;100.00
51229;BME280;37304;52.216;6.874;2023-02-15T18:06:12;102065.19;;;7.54;100.00
51229;BME280;37304;52.216;6.874;2023-02-15T18:11:31;102059.81;;;7.40;100.00
51229;BME280;37304;52.216;6.874;2023-02-15T18:16:38;102063.16;;;7.35;100.00
51229;BME280;37304;52.216;6.874;2023-02-15T18:21:40;102063.97;;;7.31;100.00
51229;BME280;37304;52.216;6.874;2023-02-15T18:26:41;102063.16;;;7.33;100.00
51229;BME280;37304;52.216;6.874;2023-02-15T18:31:43;102059.72;;;7.36;100.00
51229;BME280;37304;52.216;6.874;2023-02-15T18:36:44;102054.41;;;7.26;100.00
51229;BME280;37304;52.216;6.874;2023-02-15T18:41:45;102050.94;;;7.24;100.00
51229;BME280;37304;52.216;6.874;2023-02-15T18:46:45;102060.38;;;7.24;100.00
51229;BME280;37304;52.216;6.874;2023-02-15T18:51:48;102067.97;;;7.13;100.00
51229;BME280;37304;52.216;6.874;2023-02-15T18:56:54;102069.38;;;6.94;100.00
51229;BME280;37304;52.216;6.874;2023-02-15T19:01:58;102077.69;;;6.77;100.00
51229;BME280;37304;52.216;6.874;2023-02-15T19:07:00;102098.31;;;6.76;100.00
51229;BME280;37304;52.216;6.874;2023-02-15T19:12:00;102096.56;;;6.75;100.00
51229;BME280;37304;52.216;6.874;2023-02-15T19:17:01;102105.78;;;6.62;100.00
51229;BME280;37304;52.216;6.874;2023-02-15T19:22:01;102093.91;;;6.70;100.00
51229;BME280;37304;52.216;6.874;2023-02-15T19:27:02;102076.06;;;6.84;100.00
51229;BME280;37304;52.216;6.874;2023-02-15T19:32:03;102062.25;;;6.82;100.00
51229;BME280;37304;52.216;6.874;2023-02-15T19:37:04;102076.97;;;6.86;100.00
51229;BME280;37304;52.216;6.874;2023-02-15T19:42:05;102066.63;;;6.84;100.00
51229;BME280;37304;52.216;6.874;2023-02-15T19:47:10;102062.13;;;6.74;100.00
51229;BME280;37304;52.216;6.874;2023-02-15T19:52:19;102069.78;;;6.69;100.00
51229;BME280;37304;52.216;6.874;2023-02-15T19:57:22;102073.97;;;6.64;100.00
51229;BME280;37304;52.216;6.874;2023-02-15T20:02:22;102079.88;;;6.57;100.00
51229;BME280;37304;52.216;6.874;2023-02-15T20:07:25;102071.94;;;6.48;100.00
51229;BME280;37304;52.216;6.874;2023-02-15T20:12:31;102077.91;;;6.45;100.00
51229;BME280;37304;52.216;6.874;2023-02-15T20:17:32;102085.56;;;6.40;100.00
51229;BME280;37304;52.216;6.874;2023-02-15T20:22:32;102094.09;;;6.36;100.00
51229;BME280;37304;52.216;6.874;2023-02-15T20:27:33;102083.75;;;6.36;100.00
51229;BME280;37304;52.216;6.874;2023-02-15T20:32:36;102083.81;;;6.39;100.00
51229;BME280;37304;52.216;6.874;2023-02-15T20:37:36;102080.28;;;6.34;100.00
51229;BME280;37304;52.216;6.874;2023-02-15T20:42:37;102076.78;;;6.32;100.00
51229;BME280;37304;52.216;6.874;2023-02-15T20:47:37;102079.38;;;6.32;100.00
51229;BME280;37304;52.216;6.874;2023-02-15T20:52:38;102080.06;;;6.25;100.00
51229;BME280;37304;52.216;6.874;2023-02-15T20:57:38;102081.66;;;6.20;100.00
51229;BME280;37304;52.216;6.874;2023-02-15T21:02:38;102077.16;;;6.09;100.00
51229;BME280;37304;52.216;6.874;2023-02-15T21:07:39;102073.59;;;6.03;100.00
51229;BME280;37304;52.216;6.874;2023-02-15T21:12:39;102072.53;;;5.96;100.00
51229;BME280;37304;52.216;6.874;2023-02-15T21:17:39;102065.56;;;5.92;100.00
51229;BME280;37304;52.216;6.874;2023-02-15T21:22:43;102079.09;;;5.83;100.00
51229;BME280;37304;52.216;6.874;2023-02-15T21:27:51;102062.84;;;5.86;100.00
51229;BME280;37304;52.216;6.874;2023-02-15T21:32:52;102059.28;;;5.80;100.00
51229;BME280;37304;52.216;6.874;2023-02-15T21:37:52;102066.19;;;5.81;100.00
51229;BME280;37304;52.216;6.874;2023-02-15T21:42:53;102059.16;;;5.76;100.00
51229;BME280;37304;52.216;6.874;2023-02-15T21:48:12;102057.44;;;5.75;100.00
51229;BME280;37304;52.216;6.874;2023-02-15T21:53:19;102057.41;;;5.73;100.00
51229;BME280;37304;52.216;6.874;2023-02-15T21:58:23;102050.59;;;5.77;100.00
51229;BME280;37304;52.216;6.874;2023-02-15T22:03:30;102048.72;;;5.69;100.00
51229;BME280;37304;52.216;6.874;2023-02-15T22:08:31;102059.91;;;5.70;100.00
51229;BME280;37304;52.216;6.874;2023-02-15T22:13:32;102054.75;;;5.70;100.00
51229;BME280;37304;52.216;6.874;2023-02-15T22:18:33;102053.78;;;5.65;100.00
51229;BME280;37304;52.216;6.874;2023-02-15T22:23:33;102052.03;;;5.64;100.00
51229;BME280;37304;52.216;6.874;2023-02-15T22:28:37;102049.47;;;5.64;100.00
51229;BME280;37304;52.216;6.874;2023-02-15T22:33:39;102058.09;;;5.66;100.00
51229;BME280;37304;52.216;6.874;2023-02-15T22:38:39;102052.19;;;5.72;100.00
51229;BME280;37304;52.216;6.874;2023-02-15T22:43:41;102052.03;;;5.64;100.00
51229;BME280;37304;52.216;6.874;2023-02-15T22:48:43;102053.03;;;5.69;100.00
51229;BME280;37304;52.216;6.874;2023-02-15T22:53:44;102046.03;;;5.65;100.00
51229;BME280;37304;52.216;6.874;2023-02-15T22:58:45;102048.63;;;5.65;100.00
51229;BME280;37304;52.216;6.874;2023-02-15T23:03:48;102062.03;;;5.51;100.00
51229;BME280;37304;52.216;6.874;2023-02-15T23:08:48;102067.09;;;5.47;100.00
51229;BME280;37304;52.216;6.874;2023-02-15T23:13:49;102060.13;;;5.43;100.00
51229;BME280;37304;52.216;6.874;2023-02-15T23:18:49;102051.44;;;5.39;100.00
51229;BME280;37304;52.216;6.874;2023-02-15T23:23:56;102047.81;;;5.31;100.00
51229;BME280;37304;52.216;6.874;2023-02-15T23:28:59;102047.84;;;5.32;100.00
51229;BME280;37304;52.216;6.874;2023-02-15T23:34:01;102046.81;;;5.25;100.00
51229;BME280;37304;52.216;6.874;2023-02-15T23:39:17;102047.59;;;5.23;100.00
51229;BME280;37304;52.216;6.874;2023-02-15T23:44:37;102046.66;;;5.19;100.00
51229;BME280;37304;52.216;6.874;2023-02-15T23:49:38;102045.69;;;5.14;100.00
51229;BME280;37304;52.216;6.874;2023-02-15T23:54:38;102043.03;;;5.11;100.00
51229;BME280;37304;52.216;6.874;2023-02-15T23:59:40;102046.22;;;5.01;100.00
